Time;durP1;ratioP1;P1;durP2;ratioP2;P2;SDS_P1;SDS_P2;PMS_P1;PMS_P2;Temp;Humidity;BMP_temperature;BMP_pressure;BME280_temperature;BME280_humidity;BME280_pressure;Samples;Min_cycle;Max_cycle;Signal;HPM_P1;HPM_P2
2023/11/09 00:01:03;;;;;;;;;;;;;;;10.30;56.04;100263.56;4955748;27;98289;-68
2023/11/09 00:03:30;;;;;;;;;;;;;;;10.30;56.25;100260.06;4968547;27;98490;-68
2023/11/09 00:05:57;;;;;;;;;;;;;;;10.30;56.11;100257.38;4962363;27;99342;-71
2023/11/09 00:08:24;;;;;;;;;;;;;;;10.30;56.08;100258.19;4974141;27;99048;-70
2023/11/09 00:10:51;;;;;;;;;;;;;;;10.30;56.21;100262.78;4971227;27;98120;-68
2023/11/09 00:13:19;;;;;;;;;;;;;;;10.29;56.52;100256.53;4982862;27;98230;-69
2023/11/09 00:15:47;;;;;;;;;;;;;;;10.31;56.17;100264.38;4967072;27;98136;-72
2023/11/09 00:18:21;;;;;;;;;;;;;;;10.30;56.58;100254.69;4972785;27;99919;-71
2023/11/09 00:20:51;;;;;;;;;;;;;;;10.30;56.24;100252.78;4975503;27;98056;-72
2023/11/09 00:23:22;;;;;;;;;;;;;;;10.30;56.10;100250.09;4984027;27;98213;-72
2023/11/09 00:25:48;;;;;;;;;;;;;;;10.29;56.64;100253.84;4970618;27;98143;-71
2023/11/09 00:28:16;;;;;;;;;;;;;;;10.29;56.56;100253.84;4981451;27;100251;-68
2023/11/09 00:30:47;;;;;;;;;;;;;;;10.29;55.93;100253.84;4982647;27;98829;-68
2023/11/09 00:33:14;;;;;;;;;;;;;;;10.29;56.44;100244.97;4964038;27;99339;-68
2023/11/09 00:35:40;;;;;;;;;;;;;;;10.28;56.40;100246.84;4968855;27;98064;-72
2023/11/09 00:38:08;;;;;;;;;;;;;;;10.28;56.53;100246.84;4975722;27;99886;-71
2023/11/09 00:40:37;;;;;;;;;;;;;;;10.27;56.58;100242.56;4973832;27;98290;-68
2023/11/09 00:43:03;;;;;;;;;;;;;;;10.27;56.61;100237.16;4970617;27;99993;-69
2023/11/09 00:45:34;;;;;;;;;;;;;;;10.27;56.11;100245.25;4967215;27;98388;-72
2023/11/09 00:48:00;;;;;;;;;;;;;;;10.27;55.97;100241.75;4974854;27;98889;-72
2023/11/09 00:50:27;;;;;;;;;;;;;;;10.26;56.53;100235.56;4967919;27;98329;-71
2023/11/09 00:52:53;;;;;;;;;;;;;;;10.26;56.38;100240.94;4972209;27;98931;-71
2023/11/09 00:55:20;;;;;;;;;;;;;;;10.25;56.38;100238.50;4962251;27;100298;-68
2023/11/09 00:57:46;;;;;;;;;;;;;;;10.24;56.06;100234.97;4984764;27;99475;-69
2023/11/09 01:00:13;;;;;;;;;;;;;;;10.24;56.05;100240.38;4969949;27;98856;-69
2023/11/09 01:02:42;;;;;;;;;;;;;;;10.24;56.21;100240.38;4984740;27;99721;-71
2023/11/09 01:05:09;;;;;;;;;;;;;;;10.24;56.47;100237.66;4967193;27;98247;-69
2023/11/09 01:07:36;;;;;;;;;;;;;;;10.24;56.56;100236.88;4965476;27;98209;-72
2023/11/09 01:10:04;;;;;;;;;;;;;;;10.23;56.28;100232.56;5000548;27;99274;-68
2023/11/09 01:12:30;;;;;;;;;;;;;;;10.22;56.10;100223.69;4980289;27;98233;-71
2023/11/09 01:14:58;;;;;;;;;;;;;;;10.21;56.40;100222.03;4983171;27;99412;-69
2023/11/09 01:17:27;;;;;;;;;;;;;;;10.21;56.39;100221.25;4970643;27;98134;-68
2023/11/09 01:19:54;;;;;;;;;;;;;;;10.21;56.13;100215.84;4975190;27;97891;-71
2023/11/09 01:22:21;;;;;;;;;;;;;;;10.20;55.94;100225.03;4967387;27;99384;-71
2023/11/09 01:24:47;;;;;;;;;;;;;;;10.20;56.03;100228.50;4963570;27;99648;-71
2023/11/09 01:27:14;;;;;;;;;;;;;;;10.19;56.26;100220.72;4970213;27;99260;-71
2023/11/09 01:29:41;;;;;;;;;;;;;;;10.19;55.92;100220.72;4968461;27;98251;-68
2023/11/09 01:32:07;;;;;;;;;;;;;;;10.18;56.12;100214.53;4971432;27;98503;-69
2023/11/09 01:34:33;;;;;;;;;;;;;;;10.18;56.60;100211.00;5005846;27;109140;-71
2023/11/09 01:37:00;;;;;;;;;;;;;;;10.16;56.24;100194.31;4983313;27;97866;-69
2023/11/09 01:39:27;;;;;;;;;;;;;;;10.17;56.07;100199.41;4980312;27;98208;-69
2023/11/09 01:41:54;;;;;;;;;;;;;;;10.15;56.29;100188.13;4971706;27;98115;-71
2023/11/09 01:44:21;;;;;;;;;;;;;;;10.15;56.50;100196.22;4982551;27;98978;-68
2023/11/09 01:46:52;;;;;;;;;;;;;;;10.16;56.21;100188.94;4971532;27;98131;-71
2023/11/09 01:49:19;;;;;;;;;;;;;;;10.14;55.99;100183.81;4964995;27;98178;-71
2023/11/09 01:51:46;;;;;;;;;;;;;;;10.14;56.24;100186.53;4982194;27;98402;-71
2023/11/09 01:54:12;;;;;;;;;;;;;;;10.14;56.59;100180.28;4979332;27;98240;-69
2023/11/09 01:56:39;;;;;;;;;;;;;;;10.15;56.20;100179.25;4959559;27;99588;-71
2023/11/09 01:59:07;;;;;;;;;;;;;;;10.14;56.15;100172.22;4961927;27;97908;-72
2023/11/09 02:01:34;;;;;;;;;;;;;;;10.14;55.90;100173.06;4969237;27;98094;-68
2023/11/09 02:04:03;;;;;;;;;;;;;;;10.14;56.33;100166.81;4983414;27;104525;-71
2023/11/09 02:06:30;;;;;;;;;;;;;;;10.14;56.29;100166.81;4968685;27;99447;-71
2023/11/09 02:08:59;;;;;;;;;;;;;;;10.14;56.17;100173.06;4970961;27;98875;-69
2023/11/09 02:11:25;;;;;;;;;;;;;;;10.14;56.20;100164.13;4967738;27;98020;-68
2023/11/09 02:13:54;;;;;;;;;;;;;;;10.14;56.57;100162.28;4969365;27;98202;-69
2023/11/09 02:16:20;;;;;;;;;;;;;;;10.14;56.04;100154.19;4972153;27;100373;-68
2023/11/09 02:18:47;;;;;;;;;;;;;;;10.14;56.30;100153.38;4970020;27;98909;-68
2023/11/09 02:21:15;;;;;;;;;;;;;;;10.13;56.19;100143.69;4969101;27;98092;-69
2023/11/09 02:23:42;;;;;;;;;;;;;;;10.13;56.25;100147.19;4969114;27;98298;-69
2023/11/09 02:26:09;;;;;;;;;;;;;;;10.12;56.39;100140.19;4975590;27;100384;-72
2023/11/09 02:28:36;;;;;;;;;;;;;;;10.12;56.27;100137.50;4966592;27;97974;-69
2023/11/09 02:31:03;;;;;;;;;;;;;;;10.12;56.63;100132.09;4970553;27;98165;-68
2023/11/09 02:33:31;;;;;;;;;;;;;;;10.12;56.08;100129.41;4962801;27;98569;-71
2023/11/09 02:35:58;;;;;;;;;;;;;;;10.12;56.40;100126.72;4976913;27;98138;-71
2023/11/09 02:38:24;;;;;;;;;;;;;;;10.11;56.01;100127.81;4961986;27;98182;-71
2023/11/09 02:40:50;;;;;;;;;;;;;;;10.11;55.91;100119.72;4990596;27;97968;-68
2023/11/09 02:43:18;;;;;;;;;;;;;;;10.11;56.28;100114.34;4962881;27;99843;-72
2023/11/09 02:45:45;;;;;;;;;;;;;;;10.10;56.08;100120.81;4976458;27;99077;-71
2023/11/09 02:48:11;;;;;;;;;;;;;;;10.09;56.25;100103.00;4965698;27;99009;-68
2023/11/09 02:50:39;;;;;;;;;;;;;;;10.09;56.14;100108.41;4981589;27;98067;-68
2023/11/09 02:53:07;;;;;;;;;;;;;;;10.08;55.97;100106.78;4968370;27;98121;-72
2023/11/09 02:55:33;;;;;;;;;;;;;;;10.07;55.94;100092.53;4983042;27;98333;-72
2023/11/09 02:58:00;;;;;;;;;;;;;;;10.08;56.46;100101.41;4969549;27;98138;-71
2023/11/09 03:00:26;;;;;;;;;;;;;;;10.08;56.23;100101.41;4963010;27;99201;-69
2023/11/09 03:02:53;;;;;;;;;;;;;;;10.09;56.26;100100.31;4971977;27;98350;-68
2023/11/09 03:05:22;;;;;;;;;;;;;;;10.08;56.22;100096.81;4967031;27;97759;-71
2023/11/09 03:07:49;;;;;;;;;;;;;;;10.08;56.40;100087.94;4974366;27;99094;-72
2023/11/09 03:10:16;;;;;;;;;;;;;;;10.08;56.37;100088.75;4968561;27;98244;-68
2023/11/09 03:12:47;;;;;;;;;;;;;;;10.09;56.69;100084.16;4985359;27;98006;-68
2023/11/09 03:15:13;;;;;;;;;;;;;;;10.08;56.28;100077.97;4982285;27;98153;-71
2023/11/09 03:17:43;;;;;;;;;;;;;;;10.09;56.37;100078.78;4968142;27;99193;-68
2023/11/09 03:20:13;;;;;;;;;;;;;;;10.09;56.00;100079.56;4973952;27;98915;-69
2023/11/09 03:22:40;;;;;;;;;;;;;;;10.08;56.44;100075.28;4967370;27;98572;-71
2023/11/09 03:25:07;;;;;;;;;;;;;;;10.08;55.88;100072.59;4965501;27;98744;-71
2023/11/09 03:27:34;;;;;;;;;;;;;;;10.08;56.18;100077.97;4993874;27;99206;-71
2023/11/09 03:30:00;;;;;;;;;;;;;;;10.08;55.78;100077.16;4970063;27;99514;-71
2023/11/09 03:32:27;;;;;;;;;;;;;;;10.05;56.08;100075.81;4970132;27;98278;-71
2023/11/09 03:34:54;;;;;;;;;;;;;;;10.03;55.83;100063.72;4969214;27;98171;-68
2023/11/09 03:37:22;;;;;;;;;;;;;;;10.01;56.08;100061.28;4965898;27;98354;-68
2023/11/09 03:39:50;;;;;;;;;;;;;;;10.00;56.37;100057.00;4970209;27;97985;-68
2023/11/09 03:42:17;;;;;;;;;;;;;;;10.00;56.10;100056.19;4967562;27;99807;-68
2023/11/09 03:44:44;;;;;;;;;;;;;;;10.00;55.90;100058.88;4969437;27;98231;-71
2023/11/09 03:47:11;;;;;;;;;;;;;;;9.99;55.91;100054.59;4965986;27;98261;-71
2023/11/09 03:49:41;;;;;;;;;;;;;;;9.98;56.47;100042.19;4972076;27;98808;-68
2023/11/09 03:52:08;;;;;;;;;;;;;;;9.98;56.24;100036.78;4978163;27;98202;-68
2023/11/09 03:54:34;;;;;;;;;;;;;;;9.97;56.07;100038.69;4967850;27;99108;-71
2023/11/09 03:57:01;;;;;;;;;;;;;;;9.97;55.92;100032.50;4970438;27;99560;-68
2023/11/09 03:59:27;;;;;;;;;;;;;;;9.97;56.03;100035.19;4978836;27;98451;-71
2023/11/09 04:01:55;;;;;;;;;;;;;;;9.96;56.12;100031.69;4981017;27;98050;-68
2023/11/09 04:04:23;;;;;;;;;;;;;;;9.95;55.91;100027.41;4965313;27;98277;-68
2023/11/09 04:06:50;;;;;;;;;;;;;;;9.95;56.08;100022.00;4964561;27;100614;-68
2023/11/09 04:09:16;;;;;;;;;;;;;;;9.95;55.97;100022.00;4971876;27;98364;-68
2023/11/09 04:11:43;;;;;;;;;;;;;;;9.95;56.16;100023.91;4980531;27;98141;-71
2023/11/09 04:14:10;;;;;;;;;;;;;;;9.94;56.26;100020.41;4975212;27;98090;-68
2023/11/09 04:16:35;;;;;;;;;;;;;;;9.94;56.17;100009.63;4963651;27;98128;-71
2023/11/09 04:19:02;;;;;;;;;;;;;;;9.94;56.51;100011.50;4982098;27;98498;-68
2023/11/09 04:21:29;;;;;;;;;;;;;;;9.94;55.92;100012.31;4963437;27;99909;-71
2023/11/09 04:23:55;;;;;;;;;;;;;;;9.94;56.48;100006.09;4968404;27;98639;-71
2023/11/09 04:26:22;;;;;;;;;;;;;;;9.94;56.10;100006.09;4976107;27;98605;-71
2023/11/09 04:28:53;;;;;;;;;;;;;;;9.94;56.52;100000.72;4965095;27;97945;-67
2023/11/09 04:31:23;;;;;;;;;;;;;;;9.93;56.04;100004.50;4964507;27;99381;-68
2023/11/09 04:33:54;;;;;;;;;;;;;;;9.93;56.12;100005.31;4968075;27;98050;-71
2023/11/09 04:36:23;;;;;;;;;;;;;;;9.92;55.79;100001.00;4972807;27;98409;-66
2023/11/09 04:38:52;;;;;;;;;;;;;;;9.92;55.92;100003.69;4967779;27;97992;-71
2023/11/09 04:41:21;;;;;;;;;;;;;;;9.92;56.54;99989.44;4966906;27;98716;-67
2023/11/09 04:43:51;;;;;;;;;;;;;;;9.92;55.84;99984.06;4966281;27;97976;-71
2023/11/09 04:46:19;;;;;;;;;;;;;;;9.91;56.46;99982.44;4978111;27;98228;-70
2023/11/09 04:48:55;;;;;;;;;;;;;;;9.90;55.85;99973.53;4963691;27;98385;-71
2023/11/09 04:51:30;;;;;;;;;;;;;;;9.90;56.37;99978.91;4983414;27;98471;-68
2023/11/09 04:54:17;;;;;;;;;;;;;;;9.90;56.38;99972.75;4963886;27;99413;-71
2023/11/09 04:58:44;;;;;;;;;;;;;;;9.89;55.84;99968.44;4969578;27;97935;-68
2023/11/09 05:07:35;;;;;;;;;;;;;;;9.87;56.53;99952.56;4992433;27;98318;-72
2023/11/09 05:10:02;;;;;;;;;;;;;;;9.88;55.87;99951.50;4974925;27;98343;-71
2023/11/09 05:12:28;;;;;;;;;;;;;;;9.88;55.84;99945.31;4995872;27;100156;-71
2023/11/09 05:14:55;;;;;;;;;;;;;;;9.88;55.82;99939.91;4984789;27;99482;-71
2023/11/09 05:17:21;;;;;;;;;;;;;;;9.88;56.25;99935.34;5001761;27;97856;-71
2023/11/09 05:19:48;;;;;;;;;;;;;;;9.87;55.90;99935.63;4986198;27;98113;-68
2023/11/09 05:22:15;;;;;;;;;;;;;;;9.87;56.21;99933.72;4962370;27;102481;-68
2023/11/09 05:24:42;;;;;;;;;;;;;;;9.85;56.13;99930.50;4975426;27;98557;-68
2023/11/09 05:27:10;;;;;;;;;;;;;;;9.86;55.89;99934.78;4987637;27;99117;-68
2023/11/09 05:29:36;;;;;;;;;;;;;;;9.85;56.32;99930.50;4966402;27;98325;-68
2023/11/09 05:32:14;;;;;;;;;;;;;;;9.84;55.98;99918.91;4970367;27;99413;-68
2023/11/09 05:34:40;;;;;;;;;;;;;;;9.82;56.07;99909.50;4992539;27;99400;-68
2023/11/09 05:37:07;;;;;;;;;;;;;;;9.82;56.43;99917.56;4997660;27;98348;-68
2023/11/09 05:39:34;;;;;;;;;;;;;;;9.82;56.04;99914.88;4985964;27;98921;-71
2023/11/09 05:42:02;;;;;;;;;;;;;;;9.81;56.28;99897.13;4986307;27;99430;-71
2023/11/09 05:44:29;;;;;;;;;;;;;;;9.82;56.02;99898.72;4968596;27;98347;-71
2023/11/09 05:46:55;;;;;;;;;;;;;;;9.80;56.57;99906.28;4962559;27;99855;-71
2023/11/09 05:49:25;;;;;;;;;;;;;;;9.81;55.85;99911.38;4963805;27;98191;-68
2023/11/09 05:51:51;;;;;;;;;;;;;;;9.81;56.26;99911.38;4998245;27;99195;-68
2023/11/09 05:54:17;;;;;;;;;;;;;;;9.84;56.17;99912.75;4964145;27;98418;-71
2023/11/09 05:56:43;;;;;;;;;;;;;;;9.86;56.16;99915.94;4963961;27;99584;-71
2023/11/09 05:59:10;;;;;;;;;;;;;;;9.89;55.90;99925.38;4976729;27;102959;-71
2023/11/09 06:01:37;;;;;;;;;;;;;;;9.92;56.05;99930.22;4959294;27;99636;-68
2023/11/09 06:04:03;;;;;;;;;;;;;;;9.94;56.30;99923.47;4957287;27;98253;-71
2023/11/09 06:06:30;;;;;;;;;;;;;;;9.97;56.46;99920.22;4960552;27;99645;-71
2023/11/09 06:08:56;;;;;;;;;;;;;;;10.01;56.12;99920.47;4971767;27;98232;-68
2023/11/09 06:11:24;;;;;;;;;;;;;;;10.04;56.00;99928.78;4970821;27;98935;-69
2023/11/09 06:13:51;;;;;;;;;;;;;;;10.13;56.22;99926.31;4996211;27;98219;-71
2023/11/09 06:16:18;;;;;;;;;;;;;;;10.22;56.07;99922.00;4978935;27;98302;-68
2023/11/09 06:18:44;;;;;;;;;;;;;;;10.31;56.13;99924.94;4965810;27;98524;-71
2023/11/09 06:21:10;;;;;;;;;;;;;;;10.39;56.00;99918.16;4978432;27;98483;-68
2023/11/09 06:23:36;;;;;;;;;;;;;;;10.47;56.50;99914.84;4965692;27;98733;-68
2023/11/09 06:26:02;;;;;;;;;;;;;;;10.53;56.05;99909.16;4964996;27;98010;-68
2023/11/09 06:28:28;;;;;;;;;;;;;;;10.60;56.07;99905.34;4965748;27;98229;-72
2023/11/09 06:30:54;;;;;;;;;;;;;;;10.67;56.14;99903.13;4973157;27;99410;-71
2023/11/09 06:33:20;;;;;;;;;;;;;;;10.73;55.81;99902.81;4996872;27;98387;-69
2023/11/09 06:35:47;;;;;;;;;;;;;;;10.78;55.87;99900.06;4982922;27;97804;-71
2023/11/09 06:38:14;;;;;;;;;;;;;;;10.84;55.86;99897.31;4968596;27;98377;-71
2023/11/09 06:40:40;;;;;;;;;;;;;;;10.89;56.06;99894.59;4962787;27;97974;-68
2023/11/09 06:43:07;;;;;;;;;;;;;;;10.95;55.89;99898.84;4976146;27;99957;-69
2023/11/09 06:45:33;;;;;;;;;;;;;;;11.01;55.95;99895.03;4992949;27;99217;-72
2023/11/09 06:47:59;;;;;;;;;;;;;;;11.08;56.05;99900.88;4984311;27;98326;-71
2023/11/09 06:50:25;;;;;;;;;;;;;;;11.15;55.89;99901.34;4981029;27;106419;-69
2023/11/09 06:52:55;;;;;;;;;;;;;;;11.23;55.94;99897.25;4969642;27;100062;-69
2023/11/09 06:55:21;;;;;;;;;;;;;;;11.34;55.69;99892.56;4984603;27;98748;-68
2023/11/09 06:57:48;;;;;;;;;;;;;;;11.42;55.70;99894.63;4980866;27;98383;-68
2023/11/09 07:00:14;;;;;;;;;;;;;;;11.51;55.50;99884.78;4962838;27;98684;-69
2023/11/09 07:02:43;;;;;;;;;;;;;;;11.57;55.89;99882.88;4986381;27;98711;-71
2023/11/09 07:05:10;;;;;;;;;;;;;;;11.62;55.55;99880.09;4984282;27;98184;-71
2023/11/09 07:07:38;;;;;;;;;;;;;;;11.64;55.66;99877.94;5000279;27;101568;-69
2023/11/09 07:10:07;;;;;;;;;;;;;;;11.66;55.77;99873.03;4978580;27;99638;-71
2023/11/09 07:12:33;;;;;;;;;;;;;;;11.66;55.63;99871.13;4966532;27;98555;-68
2023/11/09 07:14:59;;;;;;;;;;;;;;;11.66;55.77;99863.03;4976337;27;110907;-71
2023/11/09 07:17:25;;;;;;;;;;;;;;;11.68;55.64;99870.84;4966801;27;99776;-68
2023/11/09 07:19:51;;;;;;;;;;;;;;;11.68;55.86;99860.06;4965662;27;98345;-71
2023/11/09 07:22:20;;;;;;;;;;;;;;;11.70;55.56;99865.94;4967098;27;99434;-71
2023/11/09 07:24:49;;;;;;;;;;;;;;;11.73;55.82;99866.19;4956820;27;98193;-71
2023/11/09 07:27:16;;;;;;;;;;;;;;;11.78;55.64;99863.41;4976989;27;98156;-71
2023/11/09 07:29:42;;;;;;;;;;;;;;;11.86;55.72;99855.78;4977721;27;99274;-68
2023/11/09 07:32:08;;;;;;;;;;;;;;;11.95;55.49;99865.69;4964157;27;98123;-71
2023/11/09 07:34:34;;;;;;;;;;;;;;;12.02;55.43;99858.03;4978361;27;125779;-69
2023/11/09 07:37:04;;;;;;;;;;;;;;;12.13;55.25;99861.38;4967330;27;98366;-69
2023/11/09 07:39:30;;;;;;;;;;;;;;;12.25;55.40;99863.63;4968531;27;98360;-69
2023/11/09 07:42:04;;;;;;;;;;;;;;;12.35;55.21;99859.97;4976181;27;98432;-69
2023/11/09 07:44:30;;;;;;;;;;;;;;;12.48;54.99;99849.22;4979127;27;98374;-71
2023/11/09 07:46:57;;;;;;;;;;;;;;;12.58;55.28;99861.00;4964185;27;98531;-71
2023/11/09 07:49:25;;;;;;;;;;;;;;;12.64;55.03;99843.56;4967363;27;98164;-71
2023/11/09 07:51:53;;;;;;;;;;;;;;;12.69;55.33;99843.47;4963844;27;98587;-71
2023/11/09 07:54:21;;;;;;;;;;;;;;;12.72;54.92;99840.97;4965997;27;98149;-71
2023/11/09 07:56:50;;;;;;;;;;;;;;;12.80;55.17;99847.63;4977371;27;98452;-71
2023/11/09 07:59:16;;;;;;;;;;;;;;;12.91;55.14;99840.94;4976709;27;98083;-69
2023/11/09 08:01:43;;;;;;;;;;;;;;;13.08;54.90;99850.38;4965103;27;98112;-68
2023/11/09 08:04:10;;;;;;;;;;;;;;;13.29;54.58;99846.22;4984792;27;100238;-70
2023/11/09 08:06:39;;;;;;;;;;;;;;;13.51;54.47;99832.78;4978800;27;99895;-68
2023/11/09 08:09:09;;;;;;;;;;;;;;;13.64;54.42;99839.31;4983869;27;99659;-69
2023/11/09 08:11:35;;;;;;;;;;;;;;;13.75;54.75;99848.00;4961629;27;100000;-68
2023/11/09 08:14:02;;;;;;;;;;;;;;;13.79;54.77;99840.88;4976479;27;97959;-68
2023/11/09 08:16:30;;;;;;;;;;;;;;;13.84;54.52;99837.28;4972827;27;98393;-68
2023/11/09 08:18:56;;;;;;;;;;;;;;;13.92;54.85;99839.28;4982010;27;98569;-68
2023/11/09 08:21:25;;;;;;;;;;;;;;;14.04;54.64;99836.81;4978077;27;98440;-68
2023/11/09 08:23:52;;;;;;;;;;;;;;;14.12;54.36;99841.53;4962506;27;98983;-71
2023/11/09 08:26:17;;;;;;;;;;;;;;;14.25;54.31;99839.88;5002509;27;98320;-70
2023/11/09 08:28:44;;;;;;;;;;;;;;;14.56;54.09;99837.25;4958977;27;111608;-68
2023/11/09 08:31:10;;;;;;;;;;;;;;;14.86;54.03;99834.91;4976461;27;98115;-68
2023/11/09 08:33:36;;;;;;;;;;;;;;;15.41;53.55;99834.50;4988950;27;99919;-70
2023/11/09 08:36:04;;;;;;;;;;;;;;;16.49;52.34;99832.09;4967493;27;98377;-70
2023/11/09 08:38:33;;;;;;;;;;;;;;;17.73;51.35;99822.88;5000850;27;98242;-69
2023/11/09 08:41:05;;;;;;;;;;;;;;;18.72;50.68;99824.19;4968331;27;98290;-71
2023/11/09 08:43:32;;;;;;;;;;;;;;;19.88;49.85;99833.84;4974928;27;97935;-69
2023/11/09 08:45:58;;;;;;;;;;;;;;;21.05;49.04;99838.28;4987733;27;98619;-68
2023/11/09 08:48:26;;;;;;;;;;;;;;;21.56;49.14;99836.44;4970432;27;98506;-69
2023/11/09 08:50:55;;;;;;;;;;;;;;;21.85;49.56;99844.53;4972731;27;98971;-71
2023/11/09 08:53:22;;;;;;;;;;;;;;;22.35;49.76;99840.91;4983494;27;98217;-70
2023/11/09 08:55:48;;;;;;;;;;;;;;;22.72;49.98;99832.25;4965778;27;98230;-69
2023/11/09 08:58:14;;;;;;;;;;;;;;;23.21;49.56;99832.34;4964738;27;98136;-71
2023/11/09 09:00:40;;;;;;;;;;;;;;;23.59;50.14;99832.53;4974731;27;98653;-69
2023/11/09 09:03:07;;;;;;;;;;;;;;;23.98;49.84;99827.63;4964637;27;98749;-68
2023/11/09 09:05:33;;;;;;;;;;;;;;;24.37;50.07;99822.59;4966703;27;98046;-69
2023/11/09 09:08:00;;;;;;;;;;;;;;;24.79;49.80;99826.22;4964625;27;98473;-69
2023/11/09 09:10:27;;;;;;;;;;;;;;;25.31;49.63;99810.56;4985225;27;98272;-68
2023/11/09 09:12:55;;;;;;;;;;;;;;;25.75;49.28;99815.22;4997719;27;100323;-71
2023/11/09 09:15:21;;;;;;;;;;;;;;;25.66;49.69;99818.28;4946361;27;97949;-68
2023/11/09 09:17:48;;;;;;;;;;;;;;;25.51;50.25;99814.66;4975440;27;99479;-71
2023/11/09 09:20:19;;;;;;;;;;;;;;;25.46;50.28;99823.28;4944135;27;98435;-69
2023/11/09 09:22:46;;;;;;;;;;;;;;;25.43;50.56;99816.59;4984121;27;99672;-71
2023/11/09 09:25:14;;;;;;;;;;;;;;;25.39;50.53;99801.97;4950162;27;98204;-71
2023/11/09 09:27:41;;;;;;;;;;;;;;;25.70;50.24;99799.78;4951569;27;98296;-68
2023/11/09 09:30:13;;;;;;;;;;;;;;;25.44;50.52;99798.06;4957955;27;98136;-71
2023/11/09 09:32:45;;;;;;;;;;;;;;;24.90;51.10;99791.28;4978092;27;99799;-69
2023/11/09 09:35:12;;;;;;;;;;;;;;;24.49;51.72;99778.31;4948325;27;98387;-68
2023/11/09 09:37:39;;;;;;;;;;;;;;;24.16;52.13;99778.28;4970831;27;99438;-71
2023/11/09 09:40:15;;;;;;;;;;;;;;;23.82;52.38;99777.50;4980778;27;98404;-71
2023/11/09 09:42:43;;;;;;;;;;;;;;;23.51;52.64;99773.88;4959874;27;98293;-68
2023/11/09 09:45:13;;;;;;;;;;;;;;;23.26;52.86;99779.81;4947276;27;98239;-68
2023/11/09 09:47:41;;;;;;;;;;;;;;;23.02;53.14;99782.94;4962466;27;98382;-70
2023/11/09 09:50:09;;;;;;;;;;;;;;;22.76;53.41;99780.91;4962542;27;98256;-71
2023/11/09 09:52:38;;;;;;;;;;;;;;;22.49;53.66;99783.56;4950551;27;98394;-68
2023/11/09 09:55:06;;;;;;;;;;;;;;;22.24;53.56;99790.50;4950929;27;98133;-68
2023/11/09 09:57:33;;;;;;;;;;;;;;;21.97;53.86;99786.81;4946924;27;99173;-68
2023/11/09 10:00:01;;;;;;;;;;;;;;;21.74;53.93;99790.25;4943979;27;100074;-68
2023/11/09 10:02:27;;;;;;;;;;;;;;;21.52;54.21;99793.66;4946356;27;99162;-70
2023/11/09 10:04:56;;;;;;;;;;;;;;;21.30;54.15;99795.09;4960670;27;98143;-70
2023/11/09 10:07:22;;;;;;;;;;;;;;;21.08;54.13;99789.06;4970547;27;100016;-68
2023/11/09 10:09:53;;;;;;;;;;;;;;;20.88;54.34;99789.34;4951495;27;98467;-70
2023/11/09 10:12:19;;;;;;;;;;;;;;;20.64;54.62;99796.56;4961866;27;98620;-70
2023/11/09 10:14:46;;;;;;;;;;;;;;;20.38;54.77;99793.44;4962996;27;98630;-68
2023/11/09 10:17:14;;;;;;;;;;;;;;;20.13;54.83;99796.28;4972876;27;100222;-70
2023/11/09 10:19:43;;;;;;;;;;;;;;;19.89;54.95;99786.22;4968659;27;98666;-70
2023/11/09 10:22:10;;;;;;;;;;;;;;;19.67;55.09;99782.06;4973308;27;99651;-68
2023/11/09 10:24:37;;;;;;;;;;;;;;;19.46;55.01;99782.16;4982291;27;98211;-70
2023/11/09 10:27:07;;;;;;;;;;;;;;;19.28;55.21;99784.31;4998920;27;99434;-68
2023/11/09 10:29:34;;;;;;;;;;;;;;;19.11;55.28;99781.84;4971450;27;99154;-68
2023/11/09 10:32:01;;;;;;;;;;;;;;;18.95;55.32;99781.72;4975353;27;98399;-71
2023/11/09 10:34:27;;;;;;;;;;;;;;;18.81;55.33;99782.00;4982938;27;98108;-68
2023/11/09 10:36:57;;;;;;;;;;;;;;;18.68;55.17;99780.38;4996689;27;98060;-68
2023/11/09 10:39:23;;;;;;;;;;;;;;;18.53;55.22;99775.56;4983043;27;98475;-68
2023/11/09 10:41:52;;;;;;;;;;;;;;;18.40;55.24;99780.19;4965455;27;99440;-69
2023/11/09 10:44:22;;;;;;;;;;;;;;;18.30;55.31;99775.13;4990270;27;98142;-70
2023/11/09 10:46:55;;;;;;;;;;;;;;;18.23;55.36;99772.16;4989203;27;98190;-70
2023/11/09 10:49:26;;;;;;;;;;;;;;;18.18;55.34;99781.34;4988806;27;98447;-68
2023/11/09 10:51:56;;;;;;;;;;;;;;;18.16;55.08;99778.16;4974296;27;100906;-70
2023/11/09 10:54:29;;;;;;;;;;;;;;;18.15;55.06;99771.88;4980742;27;98687;-68
2023/11/09 10:56:55;;;;;;;;;;;;;;;18.14;55.07;99774.97;4985370;27;98745;-68
2023/11/09 10:59:23;;;;;;;;;;;;;;;18.13;54.85;99776.88;4965181;27;98102;-68
2023/11/09 11:01:53;;;;;;;;;;;;;;;18.15;54.91;99773.81;4983805;27;97982;-68
2023/11/09 11:04:20;;;;;;;;;;;;;;;18.17;54.85;99768.03;4971369;27;99091;-70
2023/11/09 11:06:51;;;;;;;;;;;;;;;18.16;54.94;99769.97;4967170;27;98905;-68
2023/11/09 11:09:25;;;;;;;;;;;;;;;18.15;54.84;99766.44;4967785;27;98476;-68
2023/11/09 11:12:02;;;;;;;;;;;;;;;18.18;54.57;99764.97;4989214;27;98056;-70
2023/11/09 11:14:31;;;;;;;;;;;;;;;18.24;54.42;99768.31;4987419;27;98493;-68
2023/11/09 11:17:22;;;;;;;;;;;;;;;18.27;54.53;99767.63;4966076;27;98592;-70
2023/11/09 11:19:55;;;;;;;;;;;;;;;18.35;54.47;99756.66;5002796;27;98082;-71
2023/11/09 11:23:00;;;;;;;;;;;;;;;18.38;54.54;99760.59;4999243;27;99345;-70
2023/11/09 11:25:45;;;;;;;;;;;;;;;18.39;54.34;99749.38;4993479;27;98403;-70
2023/11/09 11:28:11;;;;;;;;;;;;;;;18.35;54.43;99756.66;4966594;27;98503;-70
2023/11/09 11:30:40;;;;;;;;;;;;;;;18.29;54.60;99755.25;4969655;27;100601;-70
2023/11/09 11:33:14;;;;;;;;;;;;;;;18.23;54.83;99756.56;4984600;27;98282;-70
2023/11/09 11:35:42;;;;;;;;;;;;;;;18.18;54.77;99759.50;4970373;27;98941;-67
2023/11/09 11:38:21;;;;;;;;;;;;;;;18.11;54.68;99751.06;4996858;27;99109;-67
2023/11/09 11:40:51;;;;;;;;;;;;;;;18.05;54.74;99747.78;4998007;27;98414;-69
2023/11/09 11:43:18;;;;;;;;;;;;;;;17.95;55.07;99741.91;4966388;27;98681;-69
2023/11/09 11:45:47;;;;;;;;;;;;;;;17.86;54.92;99742.78;4967476;27;99927;-67
2023/11/09 11:48:25;;;;;;;;;;;;;;;17.82;55.03;99741.06;4966201;27;99670;-68
2023/11/09 11:50:54;;;;;;;;;;;;;;;17.77;55.03;99741.28;4965124;27;98418;-70
2023/11/09 11:53:28;;;;;;;;;;;;;;;17.76;55.11;99737.72;4969465;27;100160;-70
2023/11/09 11:56:10;;;;;;;;;;;;;;;17.79;54.85;99739.00;4974785;27;98445;-67
2023/11/09 11:58:52;;;;;;;;;;;;;;;17.83;54.77;99737.22;4972190;27;98389;-67
2023/11/09 12:01:22;;;;;;;;;;;;;;;17.87;54.77;99738.13;4982715;27;98282;-67
2023/11/09 12:03:51;;;;;;;;;;;;;;;17.88;54.74;99734.25;4982973;27;98403;-67
2023/11/09 12:06:21;;;;;;;;;;;;;;;17.86;54.52;99723.72;4967961;27;99363;-67
2023/11/09 12:08:53;;;;;;;;;;;;;;;17.86;54.70;99731.88;4972545;27;99347;-69
2023/11/09 12:11:23;;;;;;;;;;;;;;;17.86;54.81;99722.91;4971459;27;98631;-67
2023/11/09 12:13:56;;;;;;;;;;;;;;;17.86;54.93;99720.97;4985805;27;99834;-67
2023/11/09 12:16:26;;;;;;;;;;;;;;;17.85;54.79;99719.41;4963195;27;99815;-67
2023/11/09 12:18:56;;;;;;;;;;;;;;;17.86;54.84;99718.25;4966236;27;98242;-67
2023/11/09 12:21:23;;;;;;;;;;;;;;;17.84;54.81;99717.81;4963380;27;98908;-67
2023/11/09 12:23:55;;;;;;;;;;;;;;;17.80;54.75;99721.50;4964691;27;99153;-67
2023/11/09 12:26:23;;;;;;;;;;;;;;;17.74;55.03;99722.81;4965437;27;98982;-69
2023/11/09 12:28:53;;;;;;;;;;;;;;;17.68;55.00;99722.22;4964247;27;97949;-67
2023/11/09 12:31:22;;;;;;;;;;;;;;;17.63;55.11;99706.88;4965230;27;100147;-67
2023/11/09 12:34:13;;;;;;;;;;;;;;;17.62;54.85;99715.38;4981469;27;98062;-69
2023/11/09 12:36:41;;;;;;;;;;;;;;;17.60;55.05;99712.97;4995837;27;99005;-70
2023/11/09 12:41:55;;;;;;;;;;;;;;;17.59;54.81;99711.38;4987928;27;98685;-69
2023/11/09 12:44:24;;;;;;;;;;;;;;;17.57;54.83;99712.88;4984241;27;98405;-66
2023/11/09 12:46:55;;;;;;;;;;;;;;;17.53;54.98;99712.72;4966954;27;98283;-70
2023/11/09 12:49:28;;;;;;;;;;;;;;;17.51;55.06;99712.25;4962796;27;98515;-67
2023/11/09 12:51:56;;;;;;;;;;;;;;;17.45;55.06;99702.69;4982093;27;99537;-67
2023/11/09 12:54:26;;;;;;;;;;;;;;;17.39;55.02;99702.06;4984825;27;98067;-67
2023/11/09 12:56:56;;;;;;;;;;;;;;;17.35;55.05;99686.72;4955173;27;98426;-69
2023/11/09 12:59:29;;;;;;;;;;;;;;;17.29;55.21;99691.59;4983155;27;97724;-69